sensor_id;sensor_type;location;lat;lon;timestamp;P1;durP1;ratioP1;P2;durP2;ratioP2
16173;SDS011;14031;50.158;8.626;2023-06-14T00:00:14;5.38;;;4.97;;
16173;SDS011;14031;50.158;8.626;2023-06-14T00:02:41;5.00;;;4.53;;
16173;SDS011;14031;50.158;8.626;2023-06-14T00:05:08;4.97;;;4.68;;
16173;SDS011;14031;50.158;8.626;2023-06-14T00:07:37;4.72;;;4.43;;
16173;SDS011;14031;50.158;8.626;2023-06-14T00:10:07;4.68;;;4.28;;
16173;SDS011;14031;50.158;8.626;2023-06-14T00:12:37;4.90;;;4.60;;
16173;SDS011;14031;50.158;8.626;2023-06-14T00:15:05;4.55;;;4.30;;
16173;SDS011;14031;50.158;8.626;2023-06-14T00:17:32;6.15;;;4.70;;
16173;SDS011;14031;50.158;8.626;2023-06-14T00:19:59;6.07;;;4.28;;
16173;SDS011;14031;50.158;8.626;2023-06-14T00:22:29;4.97;;;4.68;;
16173;SDS011;14031;50.158;8.626;2023-06-14T00:24:57;4.95;;;4.53;;
16173;SDS011;14031;50.158;8.626;2023-06-14T00:27:24;4.55;;;4.35;;
16173;SDS011;14031;50.158;8.626;2023-06-14T00:29:53;5.10;;;4.32;;
16173;SDS011;14031;50.158;8.626;2023-06-14T00:32:19;4.38;;;4.07;;
16173;SDS011;14031;50.158;8.626;2023-06-14T00:34:50;4.85;;;4.55;;
16173;SDS011;14031;50.158;8.626;2023-06-14T00:37:17;4.75;;;4.45;;
16173;SDS011;14031;50.158;8.626;2023-06-14T00:39:44;4.30;;;3.90;;
16173;SDS011;14031;50.158;8.626;2023-06-14T00:42:11;4.60;;;4.20;;
16173;SDS011;14031;50.158;8.626;2023-06-14T00:44:48;5.30;;;4.45;;
16173;SDS011;14031;50.158;8.626;2023-06-14T00:47:17;4.43;;;4.18;;
16173;SDS011;14031;50.158;8.626;2023-06-14T00:49:44;6.15;;;4.50;;
16173;SDS011;14031;50.158;8.626;2023-06-14T00:52:12;4.93;;;4.53;;
16173;SDS011;14031;50.158;8.626;2023-06-14T00:54:40;4.85;;;4.45;;
16173;SDS011;14031;50.158;8.626;2023-06-14T00:57:07;4.47;;;4.18;;
16173;SDS011;14031;50.158;8.626;2023-06-14T00:59:36;5.80;;;4.75;;
16173;SDS011;14031;50.158;8.626;2023-06-14T01:02:08;4.97;;;4.57;;
16173;SDS011;14031;50.158;8.626;2023-06-14T01:04:38;5.57;;;4.60;;
16173;SDS011;14031;50.158;8.626;2023-06-14T01:07:07;4.95;;;4.43;;
16173;SDS011;14031;50.158;8.626;2023-06-14T01:09:41;7.30;;;4.00;;
16173;SDS011;14031;50.158;8.626;2023-06-14T01:12:19;4.68;;;4.38;;
16173;SDS011;14031;50.158;8.626;2023-06-14T01:14:55;4.65;;;4.38;;
16173;SDS011;14031;50.158;8.626;2023-06-14T01:17:24;4.63;;;4.25;;
16173;SDS011;14031;50.158;8.626;2023-06-14T01:19:53;4.60;;;4.30;;
16173;SDS011;14031;50.158;8.626;2023-06-14T01:22:23;4.72;;;4.32;;
16173;SDS011;14031;50.158;8.626;2023-06-14T01:24:53;4.43;;;4.15;;
16173;SDS011;14031;50.158;8.626;2023-06-14T01:27:20;5.20;;;4.88;;
16173;SDS011;14031;50.158;8.626;2023-06-14T01:29:49;5.13;;;4.72;;
16173;SDS011;14031;50.158;8.626;2023-06-14T01:32:16;4.90;;;4.43;;
16173;SDS011;14031;50.158;8.626;2023-06-14T01:34:44;5.88;;;4.50;;
16173;SDS011;14031;50.158;8.626;2023-06-14T01:37:11;4.80;;;4.40;;
16173;SDS011;14031;50.158;8.626;2023-06-14T01:39:39;4.95;;;4.60;;
16173;SDS011;14031;50.158;8.626;2023-06-14T01:42:08;5.70;;;5.00;;
16173;SDS011;14031;50.158;8.626;2023-06-14T01:44:36;4.93;;;4.60;;
16173;SDS011;14031;50.158;8.626;2023-06-14T01:47:04;4.83;;;4.53;;
16173;SDS011;14031;50.158;8.626;2023-06-14T01:49:33;5.93;;;4.30;;
16173;SDS011;14031;50.158;8.626;2023-06-14T01:52:00;4.83;;;4.43;;
16173;SDS011;14031;50.158;8.626;2023-06-14T01:54:27;4.63;;;4.40;;
16173;SDS011;14031;50.158;8.626;2023-06-14T01:56:54;5.77;;;4.70;;
16173;SDS011;14031;50.158;8.626;2023-06-14T01:59:22;7.43;;;5.70;;
16173;SDS011;14031;50.158;8.626;2023-06-14T02:01:49;4.88;;;4.30;;
16173;SDS011;14031;50.158;8.626;2023-06-14T02:04:16;4.67;;;4.37;;
16173;SDS011;14031;50.158;8.626;2023-06-14T02:06:43;4.95;;;4.60;;
16173;SDS011;14031;50.158;8.626;2023-06-14T02:09:10;6.53;;;4.63;;
16173;SDS011;14031;50.158;8.626;2023-06-14T02:11:36;4.77;;;4.43;;
16173;SDS011;14031;50.158;8.626;2023-06-14T02:14:03;4.70;;;4.40;;
16173;SDS011;14031;50.158;8.626;2023-06-14T02:16:33;5.20;;;4.90;;
16173;SDS011;14031;50.158;8.626;2023-06-14T02:19:00;4.43;;;4.13;;
16173;SDS011;14031;50.158;8.626;2023-06-14T02:21:27;4.97;;;4.60;;
16173;SDS011;14031;50.158;8.626;2023-06-14T02:23:54;5.30;;;4.90;;
16173;SDS011;14031;50.158;8.626;2023-06-14T02:26:21;4.87;;;4.40;;
16173;SDS011;14031;50.158;8.626;2023-06-14T02:28:48;4.40;;;4.10;;
16173;SDS011;14031;50.158;8.626;2023-06-14T02:31:15;5.83;;;4.03;;
16173;SDS011;14031;50.158;8.626;2023-06-14T02:33:43;4.37;;;4.13;;
16173;SDS011;14031;50.158;8.626;2023-06-14T02:36:10;4.30;;;4.10;;
16173;SDS011;14031;50.158;8.626;2023-06-14T02:38:37;10.20;;;4.53;;
16173;SDS011;14031;50.158;8.626;2023-06-14T02:41:04;5.00;;;4.60;;
16173;SDS011;14031;50.158;8.626;2023-06-14T02:43:31;4.60;;;4.30;;
16173;SDS011;14031;50.158;8.626;2023-06-14T02:45:57;4.73;;;4.43;;
16173;SDS011;14031;50.158;8.626;2023-06-14T02:48:24;5.03;;;4.63;;
16173;SDS011;14031;50.158;8.626;2023-06-14T02:50:53;4.63;;;4.33;;
16173;SDS011;14031;50.158;8.626;2023-06-14T02:53:21;4.73;;;4.27;;
16173;SDS011;14031;50.158;8.626;2023-06-14T02:55:48;5.13;;;4.33;;
16173;SDS011;14031;50.158;8.626;2023-06-14T02:58:15;4.47;;;4.07;;
16173;SDS011;14031;50.158;8.626;2023-06-14T03:00:43;8.67;;;4.93;;
16173;SDS011;14031;50.158;8.626;2023-06-14T03:03:10;4.80;;;4.40;;
16173;SDS011;14031;50.158;8.626;2023-06-14T03:05:40;4.27;;;3.97;;
16173;SDS011;14031;50.158;8.626;2023-06-14T03:08:12;5.43;;;4.87;;
16173;SDS011;14031;50.158;8.626;2023-06-14T03:10:42;4.60;;;4.30;;
16173;SDS011;14031;50.158;8.626;2023-06-14T03:13:09;4.93;;;4.57;;
16173;SDS011;14031;50.158;8.626;2023-06-14T03:15:37;5.13;;;4.63;;
16173;SDS011;14031;50.158;8.626;2023-06-14T03:18:07;6.20;;;4.97;;
16173;SDS011;14031;50.158;8.626;2023-06-14T03:20:34;4.60;;;4.30;;
16173;SDS011;14031;50.158;8.626;2023-06-14T03:23:01;4.83;;;4.43;;
16173;SDS011;14031;50.158;8.626;2023-06-14T03:25:31;5.43;;;4.23;;
16173;SDS011;14031;50.158;8.626;2023-06-14T03:28:00;4.80;;;4.50;;
16173;SDS011;14031;50.158;8.626;2023-06-14T03:30:29;4.97;;;4.67;;
16173;SDS011;14031;50.158;8.626;2023-06-14T03:32:56;7.73;;;4.43;;
16173;SDS011;14031;50.158;8.626;2023-06-14T03:35:26;4.60;;;4.10;;
16173;SDS011;14031;50.158;8.626;2023-06-14T03:37:53;4.70;;;4.30;;
16173;SDS011;14031;50.158;8.626;2023-06-14T03:40:20;4.83;;;4.37;;
16173;SDS011;14031;50.158;8.626;2023-06-14T03:42:53;4.40;;;4.10;;
16173;SDS011;14031;50.158;8.626;2023-06-14T03:45:20;4.83;;;4.40;;
16173;SDS011;14031;50.158;8.626;2023-06-14T03:47:47;5.20;;;4.70;;
16173;SDS011;14031;50.158;8.626;2023-06-14T03:50:14;4.23;;;3.93;;
16173;SDS011;14031;50.158;8.626;2023-06-14T03:52:41;5.03;;;4.63;;
16173;SDS011;14031;50.158;8.626;2023-06-14T03:55:08;4.93;;;4.40;;
16173;SDS011;14031;50.158;8.626;2023-06-14T03:57:35;5.50;;;4.50;;
16173;SDS011;14031;50.158;8.626;2023-06-14T04:00:04;4.80;;;4.40;;
16173;SDS011;14031;50.158;8.626;2023-06-14T04:02:32;4.60;;;4.17;;
16173;SDS011;14031;50.158;8.626;2023-06-14T04:04:59;4.67;;;4.23;;
16173;SDS011;14031;50.158;8.626;2023-06-14T04:07:27;5.67;;;4.43;;
16173;SDS011;14031;50.158;8.626;2023-06-14T04:09:54;5.70;;;4.23;;
16173;SDS011;14031;50.158;8.626;2023-06-14T04:12:21;6.67;;;3.90;;
16173;SDS011;14031;50.158;8.626;2023-06-14T04:14:48;5.33;;;4.23;;
16173;SDS011;14031;50.158;8.626;2023-06-14T04:17:17;4.20;;;4.00;;
16173;SDS011;14031;50.158;8.626;2023-06-14T04:19:44;6.53;;;4.00;;
16173;SDS011;14031;50.158;8.626;2023-06-14T04:22:11;5.30;;;4.47;;
16173;SDS011;14031;50.158;8.626;2023-06-14T04:24:37;4.20;;;3.73;;
16173;SDS011;14031;50.158;8.626;2023-06-14T04:27:04;4.17;;;3.83;;
16173;SDS011;14031;50.158;8.626;2023-06-14T04:29:31;5.20;;;4.60;;
16173;SDS011;14031;50.158;8.626;2023-06-14T04:31:58;6.93;;;4.23;;
16173;SDS011;14031;50.158;8.626;2023-06-14T04:34:28;5.17;;;4.20;;
16173;SDS011;14031;50.158;8.626;2023-06-14T04:36:58;5.97;;;3.90;;
16173;SDS011;14031;50.158;8.626;2023-06-14T04:39:26;4.47;;;4.17;;
16173;SDS011;14031;50.158;8.626;2023-06-14T04:41:53;7.50;;;3.90;;
16173;SDS011;14031;50.158;8.626;2023-06-14T04:44:22;4.87;;;4.47;;
16173;SDS011;14031;50.158;8.626;2023-06-14T04:46:54;4.03;;;3.80;;
16173;SDS011;14031;50.158;8.626;2023-06-14T04:49:22;4.67;;;4.33;;
16173;SDS011;14031;50.158;8.626;2023-06-14T04:51:51;4.70;;;4.00;;
16173;SDS011;14031;50.158;8.626;2023-06-14T04:54:22;6.13;;;5.27;;
16173;SDS011;14031;50.158;8.626;2023-06-14T04:56:49;5.40;;;3.85;;
16173;SDS011;14031;50.158;8.626;2023-06-14T04:59:16;5.03;;;3.93;;
16173;SDS011;14031;50.158;8.626;2023-06-14T05:01:43;9.07;;;4.10;;
16173;SDS011;14031;50.158;8.626;2023-06-14T05:04:19;4.23;;;3.93;;
16173;SDS011;14031;50.158;8.626;2023-06-14T05:06:47;5.50;;;4.10;;
16173;SDS011;14031;50.158;8.626;2023-06-14T05:09:15;4.60;;;3.53;;
16173;SDS011;14031;50.158;8.626;2023-06-14T05:11:49;5.03;;;4.00;;
16173;SDS011;14031;50.158;8.626;2023-06-14T05:14:16;8.03;;;3.93;;
16173;SDS011;14031;50.158;8.626;2023-06-14T05:16:43;5.60;;;3.43;;
16173;SDS011;14031;50.158;8.626;2023-06-14T05:19:10;7.73;;;3.70;;
16173;SDS011;14031;50.158;8.626;2023-06-14T05:21:37;3.95;;;3.65;;
16173;SDS011;14031;50.158;8.626;2023-06-14T05:24:04;5.70;;;3.83;;
16173;SDS011;14031;50.158;8.626;2023-06-14T05:26:33;4.03;;;3.75;;
16173;SDS011;14031;50.158;8.626;2023-06-14T05:29:00;4.40;;;4.03;;
16173;SDS011;14031;50.158;8.626;2023-06-14T05:31:27;4.82;;;4.03;;
16173;SDS011;14031;50.158;8.626;2023-06-14T05:36:52;5.50;;;4.03;;
16173;SDS011;14031;50.158;8.626;2023-06-14T05:42:47;5.83;;;3.93;;
16173;SDS011;14031;50.158;8.626;2023-06-14T05:45:23;4.18;;;3.88;;
16173;SDS011;14031;50.158;8.626;2023-06-14T05:50:42;6.13;;;3.50;;
16173;SDS011;14031;50.158;8.626;2023-06-14T05:53:20;4.15;;;3.85;;
16173;SDS011;14031;50.158;8.626;2023-06-14T05:56:06;7.53;;;4.20;;
16173;SDS011;14031;50.158;8.626;2023-06-14T05:58:37;4.45;;;3.70;;
16173;SDS011;14031;50.158;8.626;2023-06-14T06:01:13;11.35;;;3.55;;
16173;SDS011;14031;50.158;8.626;2023-06-14T06:06:47;8.10;;;3.80;;
16173;SDS011;14031;50.158;8.626;2023-06-14T06:09:29;4.10;;;3.65;;
16173;SDS011;14031;50.158;8.626;2023-06-14T06:11:55;4.50;;;4.20;;
16173;SDS011;14031;50.158;8.626;2023-06-14T06:14:24;4.07;;;3.88;;
16173;SDS011;14031;50.158;8.626;2023-06-14T06:16:50;4.53;;;3.60;;
16173;SDS011;14031;50.158;8.626;2023-06-14T06:19:18;3.72;;;3.42;;
16173;SDS011;14031;50.158;8.626;2023-06-14T06:21:45;3.63;;;3.42;;
16173;SDS011;14031;50.158;8.626;2023-06-14T06:24:11;4.13;;;3.72;;
16173;SDS011;14031;50.158;8.626;2023-06-14T06:26:38;4.13;;;3.67;;
16173;SDS011;14031;50.158;8.626;2023-06-14T06:29:05;5.20;;;3.75;;
16173;SDS011;14031;50.158;8.626;2023-06-14T06:31:45;4.72;;;3.90;;
16173;SDS011;14031;50.158;8.626;2023-06-14T06:34:12;3.65;;;3.38;;
16173;SDS011;14031;50.158;8.626;2023-06-14T06:36:39;4.45;;;3.55;;
16173;SDS011;14031;50.158;8.626;2023-06-14T06:39:06;4.93;;;3.72;;
16173;SDS011;14031;50.158;8.626;2023-06-14T06:41:35;3.97;;;3.30;;
16173;SDS011;14031;50.158;8.626;2023-06-14T06:44:03;3.55;;;3.25;;
16173;SDS011;14031;50.158;8.626;2023-06-14T06:46:30;6.50;;;3.30;;
16173;SDS011;14031;50.158;8.626;2023-06-14T06:48:58;6.50;;;3.50;;
16173;SDS011;14031;50.158;8.626;2023-06-14T06:51:25;3.60;;;3.40;;
16173;SDS011;14031;50.158;8.626;2023-06-14T06:53:52;3.70;;;3.35;;
16173;SDS011;14031;50.158;8.626;2023-06-14T06:56:19;4.18;;;3.20;;
16173;SDS011;14031;50.158;8.626;2023-06-14T06:58:46;3.95;;;3.70;;
16173;SDS011;14031;50.158;8.626;2023-06-14T07:01:13;5.00;;;3.42;;
16173;SDS011;14031;50.158;8.626;2023-06-14T07:03:40;3.58;;;3.25;;
16173;SDS011;14031;50.158;8.626;2023-06-14T07:06:09;3.85;;;3.17;;
16173;SDS011;14031;50.158;8.626;2023-06-14T07:08:36;9.27;;;3.20;;
16173;SDS011;14031;50.158;8.626;2023-06-14T07:11:03;5.28;;;3.00;;
16173;SDS011;14031;50.158;8.626;2023-06-14T07:13:30;2.90;;;2.70;;
16173;SDS011;14031;50.158;8.626;2023-06-14T07:15:57;3.58;;;3.28;;
16173;SDS011;14031;50.158;8.626;2023-06-14T07:18:25;5.47;;;3.17;;
16173;SDS011;14031;50.158;8.626;2023-06-14T07:20:52;2.90;;;2.80;;
16173;SDS011;14031;50.158;8.626;2023-06-14T07:23:21;4.45;;;2.80;;
16173;SDS011;14031;50.158;8.626;2023-06-14T07:25:48;2.63;;;2.53;;
16173;SDS011;14031;50.158;8.626;2023-06-14T07:28:15;2.90;;;2.70;;
16173;SDS011;14031;50.158;8.626;2023-06-14T07:30:43;3.20;;;3.00;;
16173;SDS011;14031;50.158;8.626;2023-06-14T07:33:10;7.65;;;4.47;;
16173;SDS011;14031;50.158;8.626;2023-06-14T07:35:37;2.67;;;2.58;;
16173;SDS011;14031;50.158;8.626;2023-06-14T07:38:04;2.95;;;2.72;;
16173;SDS011;14031;50.158;8.626;2023-06-14T07:40:32;5.68;;;2.90;;
16173;SDS011;14031;50.158;8.626;2023-06-14T07:42:59;4.65;;;3.15;;
16173;SDS011;14031;50.158;8.626;2023-06-14T07:45:26;4.15;;;3.00;;
16173;SDS011;14031;50.158;8.626;2023-06-14T07:47:53;2.97;;;2.78;;
16173;SDS011;14031;50.158;8.626;2023-06-14T07:50:21;2.97;;;2.78;;
16173;SDS011;14031;50.158;8.626;2023-06-14T07:52:48;3.08;;;2.88;;
16173;SDS011;14031;50.158;8.626;2023-06-14T07:55:15;2.72;;;2.63;;
16173;SDS011;14031;50.158;8.626;2023-06-14T07:57:43;3.20;;;2.90;;
16173;SDS011;14031;50.158;8.626;2023-06-14T08:00:11;4.50;;;2.60;;
16173;SDS011;14031;50.158;8.626;2023-06-14T08:02:40;3.53;;;2.60;;
16173;SDS011;14031;50.158;8.626;2023-06-14T08:05:08;2.70;;;2.50;;
16173;SDS011;14031;50.158;8.626;2023-06-14T08:07:36;2.75;;;2.55;;
16173;SDS011;14031;50.158;8.626;2023-06-14T08:10:03;3.47;;;2.33;;
16173;SDS011;14031;50.158;8.626;2023-06-14T08:12:31;2.70;;;2.33;;
16173;SDS011;14031;50.158;8.626;2023-06-14T08:14:59;2.38;;;2.28;;
16173;SDS011;14031;50.158;8.626;2023-06-14T08:17:26;2.53;;;2.00;;
16173;SDS011;14031;50.158;8.626;2023-06-14T08:19:53;2.63;;;2.17;;
16173;SDS011;14031;50.158;8.626;2023-06-14T08:22:22;4.60;;;2.05;;
16173;SDS011;14031;50.158;8.626;2023-06-14T08:24:49;1.98;;;1.77;;
16173;SDS011;14031;50.158;8.626;2023-06-14T08:27:18;2.08;;;1.98;;
16173;SDS011;14031;50.158;8.626;2023-06-14T08:29:45;1.70;;;1.60;;
16173;SDS011;14031;50.158;8.626;2023-06-14T08:32:13;2.60;;;1.92;;
16173;SDS011;14031;50.158;8.626;2023-06-14T08:34:40;2.25;;;2.15;;
16173;SDS011;14031;50.158;8.626;2023-06-14T08:37:06;1.98;;;1.88;;
16173;SDS011;14031;50.158;8.626;2023-06-14T08:39:33;2.00;;;1.90;;
16173;SDS011;14031;50.158;8.626;2023-06-14T08:42:01;4.68;;;1.70;;
16173;SDS011;14031;50.158;8.626;2023-06-14T08:44:28;5.35;;;2.10;;
16173;SDS011;14031;50.158;8.626;2023-06-14T08:46:55;2.42;;;2.00;;
16173;SDS011;14031;50.158;8.626;2023-06-14T08:49:24;2.10;;;2.00;;
16173;SDS011;14031;50.158;8.626;2023-06-14T08:51:53;2.10;;;2.00;;
16173;SDS011;14031;50.158;8.626;2023-06-14T08:54:25;1.75;;;1.70;;
16173;SDS011;14031;50.158;8.626;2023-06-14T08:56:55;2.58;;;2.40;;
16173;SDS011;14031;50.158;8.626;2023-06-14T08:59:23;1.83;;;1.73;;
16173;SDS011;14031;50.158;8.626;2023-06-14T09:01:51;1.67;;;1.67;;
16173;SDS011;14031;50.158;8.626;2023-06-14T09:04:19;2.15;;;1.70;;
16173;SDS011;14031;50.158;8.626;2023-06-14T09:06:48;1.83;;;1.73;;
16173;SDS011;14031;50.158;8.626;2023-06-14T09:09:17;2.03;;;1.83;;
16173;SDS011;14031;50.158;8.626;2023-06-14T09:11:45;1.85;;;1.60;;
16173;SDS011;14031;50.158;8.626;2023-06-14T09:14:12;4.28;;;1.90;;
16173;SDS011;14031;50.158;8.626;2023-06-14T09:16:39;5.53;;;2.53;;
16173;SDS011;14031;50.158;8.626;2023-06-14T09:19:06;2.08;;;1.98;;
16173;SDS011;14031;50.158;8.626;2023-06-14T09:21:33;6.03;;;1.80;;
16173;SDS011;14031;50.158;8.626;2023-06-14T09:24:04;1.90;;;1.80;;
16173;SDS011;14031;50.158;8.626;2023-06-14T09:26:31;1.80;;;1.70;;
16173;SDS011;14031;50.158;8.626;2023-06-14T09:28:58;2.05;;;1.95;;
16173;SDS011;14031;50.158;8.626;2023-06-14T09:31:25;2.20;;;1.60;;
16173;SDS011;14031;50.158;8.626;2023-06-14T09:33:56;2.20;;;2.10;;
16173;SDS011;14031;50.158;8.626;2023-06-14T09:36:23;2.92;;;1.80;;
16173;SDS011;14031;50.158;8.626;2023-06-14T09:38:51;2.85;;;1.88;;
16173;SDS011;14031;50.158;8.626;2023-06-14T09:41:20;3.40;;;1.73;;
16173;SDS011;14031;50.158;8.626;2023-06-14T09:43:47;2.00;;;1.83;;
16173;SDS011;14031;50.158;8.626;2023-06-14T09:46:14;1.75;;;1.73;;
16173;SDS011;14031;50.158;8.626;2023-06-14T09:48:42;2.85;;;1.65;;
16173;SDS011;14031;50.158;8.626;2023-06-14T09:51:09;1.70;;;1.70;;
16173;SDS011;14031;50.158;8.626;2023-06-14T09:53:40;3.78;;;1.83;;
16173;SDS011;14031;50.158;8.626;2023-06-14T09:56:08;1.90;;;1.80;;
16173;SDS011;14031;50.158;8.626;2023-06-14T09:58:38;1.88;;;1.77;;
16173;SDS011;14031;50.158;8.626;2023-06-14T10:01:06;4.88;;;1.90;;
16173;SDS011;14031;50.158;8.626;2023-06-14T10:03:38;2.15;;;1.95;;
16173;SDS011;14031;50.158;8.626;2023-06-14T10:06:06;2.05;;;2.00;;
16173;SDS011;14031;50.158;8.626;2023-06-14T10:08:35;1.92;;;1.85;;
16173;SDS011;14031;50.158;8.626;2023-06-14T10:11:03;2.10;;;2.00;;
16173;SDS011;14031;50.158;8.626;2023-06-14T10:13:31;2.00;;;1.90;;
16173;SDS011;14031;50.158;8.626;2023-06-14T10:16:04;4.40;;;2.17;;
16173;SDS011;14031;50.158;8.626;2023-06-14T10:18:36;2.83;;;2.72;;
16173;SDS011;14031;50.158;8.626;2023-06-14T10:21:13;2.20;;;2.10;;
16173;SDS011;14031;50.158;8.626;2023-06-14T10:23:47;3.17;;;2.00;;
16173;SDS011;14031;50.158;8.626;2023-06-14T10:26:19;2.63;;;2.53;;
16173;SDS011;14031;50.158;8.626;2023-06-14T10:28:56;1.83;;;1.83;;
16173;SDS011;14031;50.158;8.626;2023-06-14T10:34:24;4.88;;;2.05;;
16173;SDS011;14031;50.158;8.626;2023-06-14T10:37:02;3.88;;;2.53;;
16173;SDS011;14031;50.158;8.626;2023-06-14T10:39:30;2.95;;;2.10;;
16173;SDS011;14031;50.158;8.626;2023-06-14T10:41:57;2.97;;;2.10;;
16173;SDS011;14031;50.158;8.626;2023-06-14T10:47:26;2.30;;;2.20;;
16173;SDS011;14031;50.158;8.626;2023-06-14T10:49:55;1.92;;;1.83;;
16173;SDS011;14031;50.158;8.626;2023-06-14T10:52:24;3.60;;;1.98;;
16173;SDS011;14031;50.158;8.626;2023-06-14T10:55:00;2.55;;;2.08;;
16173;SDS011;14031;50.158;8.626;2023-06-14T10:57:34;1.83;;;1.73;;
16173;SDS011;14031;50.158;8.626;2023-06-14T11:00:02;2.90;;;2.60;;
16173;SDS011;14031;50.158;8.626;2023-06-14T11:05:49;2.28;;;2.17;;
16173;SDS011;14031;50.158;8.626;2023-06-14T11:08:27;3.58;;;3.22;;
16173;SDS011;14031;50.158;8.626;2023-06-14T11:11:07;5.10;;;4.65;;
16173;SDS011;14031;50.158;8.626;2023-06-14T11:13:36;2.72;;;2.63;;
16173;SDS011;14031;50.158;8.626;2023-06-14T11:16:09;7.78;;;2.40;;
16173;SDS011;14031;50.158;8.626;2023-06-14T11:18:37;2.28;;;2.03;;
16173;SDS011;14031;50.158;8.626;2023-06-14T11:21:06;2.10;;;2.00;;
16173;SDS011;14031;50.158;8.626;2023-06-14T11:23:33;3.35;;;1.83;;
16173;SDS011;14031;50.158;8.626;2023-06-14T11:26:00;2.00;;;1.90;;
16173;SDS011;14031;50.158;8.626;2023-06-14T11:28:35;2.13;;;1.67;;
16173;SDS011;14031;50.158;8.626;2023-06-14T11:31:03;2.30;;;1.90;;
16173;SDS011;14031;50.158;8.626;2023-06-14T11:33:30;2.03;;;1.92;;
16173;SDS011;14031;50.158;8.626;2023-06-14T11:35:57;4.28;;;3.30;;
16173;SDS011;14031;50.158;8.626;2023-06-14T11:38:26;2.33;;;2.22;;
16173;SDS011;14031;50.158;8.626;2023-06-14T11:40:52;2.20;;;2.10;;
16173;SDS011;14031;50.158;8.626;2023-06-14T11:43:19;3.75;;;2.05;;
16173;SDS011;14031;50.158;8.626;2023-06-14T11:45:47;1.90;;;1.70;;
16173;SDS011;14031;50.158;8.626;2023-06-14T11:48:15;2.00;;;1.90;;
16173;SDS011;14031;50.158;8.626;2023-06-14T11:50:42;1.88;;;1.77;;
16173;SDS011;14031;50.158;8.626;2023-06-14T11:53:08;1.80;;;1.80;;
16173;SDS011;14031;50.158;8.626;2023-06-14T11:55:37;4.05;;;1.80;;
16173;SDS011;14031;50.158;8.626;2023-06-14T11:58:05;1.90;;;1.80;;
16173;SDS011;14031;50.158;8.626;2023-06-14T12:00:35;2.53;;;1.80;;
16173;SDS011;14031;50.158;8.626;2023-06-14T12:03:02;3.70;;;2.00;;
16173;SDS011;14031;50.158;8.626;2023-06-14T12:05:29;2.10;;;2.00;;
16173;SDS011;14031;50.158;8.626;2023-06-14T12:07:58;1.90;;;1.80;;
16173;SDS011;14031;50.158;8.626;2023-06-14T12:10:26;4.55;;;2.05;;
16173;SDS011;14031;50.158;8.626;2023-06-14T12:12:57;1.88;;;1.77;;
16173;SDS011;14031;50.158;8.626;2023-06-14T12:15:27;1.80;;;1.80;;
16173;SDS011;14031;50.158;8.626;2023-06-14T12:17:55;2.45;;;1.90;;
16173;SDS011;14031;50.158;8.626;2023-06-14T12:20:28;2.90;;;2.10;;
16173;SDS011;14031;50.158;8.626;2023-06-14T12:22:56;2.47;;;1.83;;
16173;SDS011;14031;50.158;8.626;2023-06-14T12:25:26;2.83;;;2.00;;
16173;SDS011;14031;50.158;8.626;2023-06-14T12:27:57;5.07;;;2.50;;
16173;SDS011;14031;50.158;8.626;2023-06-14T12:30:24;2.17;;;2.08;;
16173;SDS011;14031;50.158;8.626;2023-06-14T12:32:51;5.15;;;2.17;;
16173;SDS011;14031;50.158;8.626;2023-06-14T12:35:18;2.50;;;2.30;;
16173;SDS011;14031;50.158;8.626;2023-06-14T12:37:45;2.63;;;2.00;;
16173;SDS011;14031;50.158;8.626;2023-06-14T12:40:12;2.97;;;2.10;;
16173;SDS011;14031;50.158;8.626;2023-06-14T12:42:39;2.50;;;2.30;;
16173;SDS011;14031;50.158;8.626;2023-06-14T12:45:08;2.58;;;2.47;;
16173;SDS011;14031;50.158;8.626;2023-06-14T12:47:36;5.00;;;2.17;;
16173;SDS011;14031;50.158;8.626;2023-06-14T12:50:03;2.20;;;2.10;;
16173;SDS011;14031;50.158;8.626;2023-06-14T12:52:30;2.03;;;1.92;;
16173;SDS011;14031;50.158;8.626;2023-06-14T12:55:00;2.80;;;2.30;;
16173;SDS011;14031;50.158;8.626;2023-06-14T12:57:28;2.17;;;2.08;;
16173;SDS011;14031;50.158;8.626;2023-06-14T12:59:54;2.10;;;2.00;;
16173;SDS011;14031;50.158;8.626;2023-06-14T13:02:23;2.28;;;1.92;;
16173;SDS011;14031;50.158;8.626;2023-06-14T13:04:50;1.90;;;1.80;;
16173;SDS011;14031;50.158;8.626;2023-06-14T13:07:18;3.40;;;3.10;;
16173;SDS011;14031;50.158;8.626;2023-06-14T13:09:45;2.47;;;1.90;;
16173;SDS011;14031;50.158;8.626;2023-06-14T13:12:12;2.20;;;2.10;;
16173;SDS011;14031;50.158;8.626;2023-06-14T13:14:38;2.08;;;1.98;;
16173;SDS011;14031;50.158;8.626;2023-06-14T13:17:07;1.90;;;1.80;;
16173;SDS011;14031;50.158;8.626;2023-06-14T13:19:36;2.45;;;1.92;;
16173;SDS011;14031;50.158;8.626;2023-06-14T13:22:02;2.92;;;2.78;;
16173;SDS011;14031;50.158;8.626;2023-06-14T13:24:30;1.70;;;1.60;;
16173;SDS011;14031;50.158;8.626;2023-06-14T13:26:57;1.80;;;1.70;;
16173;SDS011;14031;50.158;8.626;2023-06-14T13:29:24;1.73;;;1.73;;
16173;SDS011;14031;50.158;8.626;2023-06-14T13:31:51;2.08;;;1.98;;
16173;SDS011;14031;50.158;8.626;2023-06-14T13:34:18;2.22;;;2.10;;
16173;SDS011;14031;50.158;8.626;2023-06-14T13:36:47;1.98;;;1.88;;
16173;SDS011;14031;50.158;8.626;2023-06-14T13:39:14;3.17;;;2.00;;
16173;SDS011;14031;50.158;8.626;2023-06-14T13:41:41;1.90;;;1.80;;
16173;SDS011;14031;50.158;8.626;2023-06-14T13:44:08;1.73;;;1.63;;
16173;SDS011;14031;50.158;8.626;2023-06-14T13:46:36;1.77;;;1.67;;
16173;SDS011;14031;50.158;8.626;2023-06-14T13:49:03;2.92;;;1.92;;
16173;SDS011;14031;50.158;8.626;2023-06-14T13:51:30;1.50;;;1.40;;
16173;SDS011;14031;50.158;8.626;2023-06-14T13:53:58;1.85;;;1.75;;
16173;SDS011;14031;50.158;8.626;2023-06-14T13:56:26;1.90;;;1.77;;
16173;SDS011;14031;50.158;8.626;2023-06-14T13:58:53;3.60;;;1.77;;
16173;SDS011;14031;50.158;8.626;2023-06-14T14:01:19;2.20;;;1.90;;
16173;SDS011;14031;50.158;8.626;2023-06-14T14:03:47;3.35;;;1.77;;
16173;SDS011;14031;50.158;8.626;2023-06-14T14:06:14;1.90;;;1.80;;
16173;SDS011;14031;50.158;8.626;2023-06-14T14:08:41;4.40;;;1.92;;
16173;SDS011;14031;50.158;8.626;2023-06-14T14:11:10;1.88;;;1.80;;
16173;SDS011;14031;50.158;8.626;2023-06-14T14:13:37;1.52;;;1.52;;
16173;SDS011;14031;50.158;8.626;2023-06-14T14:16:05;1.70;;;1.60;;
16173;SDS011;14031;50.158;8.626;2023-06-14T14:18:32;3.30;;;1.83;;
16173;SDS011;14031;50.158;8.626;2023-06-14T14:20:59;1.88;;;1.70;;
16173;SDS011;14031;50.158;8.626;2023-06-14T14:23:27;1.85;;;1.80;;
16173;SDS011;14031;50.158;8.626;2023-06-14T14:25:54;2.00;;;1.65;;
16173;SDS011;14031;50.158;8.626;2023-06-14T14:28:23;2.15;;;2.00;;
16173;SDS011;14031;50.158;8.626;2023-06-14T14:30:50;2.00;;;1.90;;
16173;SDS011;14031;50.158;8.626;2023-06-14T14:33:18;2.05;;;1.75;;
16173;SDS011;14031;50.158;8.626;2023-06-14T14:35:45;1.83;;;1.70;;
16173;SDS011;14031;50.158;8.626;2023-06-14T14:38:12;1.85;;;1.75;;
16173;SDS011;14031;50.158;8.626;2023-06-14T14:40:40;1.95;;;1.92;;
16173;SDS011;14031;50.158;8.626;2023-06-14T14:43:07;2.00;;;1.90;;
16173;SDS011;14031;50.158;8.626;2023-06-14T14:45:35;2.08;;;1.95;;
16173;SDS011;14031;50.158;8.626;2023-06-14T14:48:03;2.33;;;1.90;;
16173;SDS011;14031;50.158;8.626;2023-06-14T14:50:30;4.75;;;1.85;;
16173;SDS011;14031;50.158;8.626;2023-06-14T14:52:57;1.50;;;1.50;;
16173;SDS011;14031;50.158;8.626;2023-06-14T14:55:24;1.80;;;1.70;;
16173;SDS011;14031;50.158;8.626;2023-06-14T14:57:50;2.72;;;2.05;;
16173;SDS011;14031;50.158;8.626;2023-06-14T15:00:18;1.55;;;1.55;;
16173;SDS011;14031;50.158;8.626;2023-06-14T15:02:46;2.45;;;2.08;;
16173;SDS011;14031;50.158;8.626;2023-06-14T15:05:13;1.80;;;1.70;;
16173;SDS011;14031;50.158;8.626;2023-06-14T15:07:39;2.05;;;1.85;;
16173;SDS011;14031;50.158;8.626;2023-06-14T15:10:07;2.85;;;1.80;;
16173;SDS011;14031;50.158;8.626;2023-06-14T15:12:34;1.75;;;1.70;;
16173;SDS011;14031;50.158;8.626;2023-06-14T15:15:01;2.28;;;2.17;;